Royal Oak, Michigan
Current Conditions -  °F | °C
As of 10:55 AM on Thursday 30 Oct 2014 (Local Time) from KVLL Reporting Station
Clear Clear  
Wind Chill: 45°   Ceiling: Unl
Heat Index: 45°   Visibility: 10mi
Dew Point: 31°   Wind: 0mph
Humidity: 58%   Direction: NA
Pressure: 30.15"   Gusts: NA
Location:  42.49°N, 83.14°W
Report Text: KVLL 301455Z AUTO 00000KT 10SM CLR 07/00 A3015 RMK AO2 T00741004
Loading
Personal Weather Stations






























Interactive Weather Map
Tropical Storm Tracking
New forecast layout! Learn more

10-Day Weather Forecast

Advertisements
Track Severe Weather on mobile